createdAt,value
2023-05-02T00:01:11.676Z,96539.69
2023-05-02T00:03:39.976Z,96502.97
2023-05-02T00:06:11.481Z,96532.56
2023-05-02T00:08:41.732Z,96532.78
2023-05-02T00:11:14.035Z,96530.13
2023-05-02T00:13:44.139Z,96531.56
2023-05-02T00:16:16.967Z,96521.22
2023-05-02T00:18:44.940Z,96537.44
2023-05-02T00:21:13.208Z,96541.69
2023-05-02T00:23:44.057Z,96534.00
2023-05-02T00:26:13.913Z,96537.13
2023-05-02T00:28:41.878Z,96515.88
2023-05-02T00:31:16.713Z,96524.66
2023-05-02T00:33:44.953Z,96544.03
2023-05-02T00:36:16.547Z,96542.50
2023-05-02T00:38:47.470Z,96547.25
2023-05-02T00:41:18.455Z,96548.53
2023-05-02T00:43:49.054Z,96509.84
2023-05-02T00:46:17.817Z,96546.75
2023-05-02T00:48:56.746Z,96545.91
2023-05-02T00:51:29.841Z,96543.53
2023-05-02T00:53:58.034Z,96513.00
2023-05-02T00:56:38.776Z,96549.31
2023-05-02T00:59:07.792Z,96545.66
2023-05-02T01:01:41.941Z,96439.59
2023-05-02T01:04:20.777Z,96433.44
2023-05-02T01:06:55.265Z,96552.72
2023-05-02T01:09:35.648Z,96562.75
2023-05-02T01:12:08.918Z,96553.06
2023-05-02T01:14:42.339Z,96508.78
2023-05-02T01:17:13.526Z,96533.72
2023-05-02T01:19:46.973Z,96546.19
2023-05-02T01:22:15.717Z,96548.06
2023-05-02T01:24:54.641Z,96554.94
2023-05-02T01:27:34.280Z,96547.00
2023-05-02T01:30:18.511Z,96548.06
2023-05-02T01:32:49.779Z,96544.31
2023-05-02T01:35:18.911Z,96551.69
2023-05-02T01:37:52.266Z,96553.81
2023-05-02T01:40:25.782Z,96556.75
2023-05-02T01:42:54.420Z,96552.53
2023-05-02T01:45:25.986Z,96557.28
2023-05-02T01:47:54.646Z,96563.31
2023-05-02T01:50:27.801Z,96549.09
2023-05-02T01:53:14.057Z,96544.34
2023-05-02T01:55:49.857Z,96545.41
2023-05-02T01:58:23.136Z,96555.88
2023-05-02T02:00:53.100Z,96557.81
2023-05-02T02:03:23.702Z,96557.59
2023-05-02T02:05:59.642Z,96560.00
2023-05-02T02:08:31.153Z,96564.47
2023-05-02T02:11:05.576Z,96552.22
2023-05-02T02:13:52.059Z,96517.00
2023-05-02T02:16:26.536Z,96563.44
2023-05-02T02:18:56.582Z,96567.13
2023-05-02T02:21:25.499Z,96570.09
2023-05-02T02:23:55.608Z,96572.97
2023-05-02T02:26:23.461Z,96574.31
2023-05-02T02:28:52.263Z,96576.16
2023-05-02T02:31:26.122Z,96583.06
2023-05-02T02:33:54.292Z,96578.53
2023-05-02T02:36:27.214Z,96546.19
2023-05-02T02:39:01.318Z,96576.16
2023-05-02T02:41:38.981Z,96583.09
2023-05-02T02:44:13.528Z,96572.41
2023-05-02T02:46:52.859Z,96579.88
2023-05-02T02:49:37.372Z,96595.56
2023-05-02T02:52:12.910Z,96601.00
2023-05-02T02:54:46.613Z,96594.00
2023-05-02T02:57:18.317Z,96615.56
2023-05-02T02:59:53.441Z,96619.03
2023-05-02T03:02:30.656Z,96624.16
2023-05-02T03:04:59.116Z,96626.59
2023-05-02T03:07:29.621Z,96632.00
2023-05-02T03:10:01.706Z,96627.47
2023-05-02T03:12:36.107Z,96630.22
2023-05-02T03:15:17.792Z,96638.44
2023-05-02T03:17:51.729Z,96630.72
2023-05-02T03:20:24.900Z,96593.06
2023-05-02T03:22:54.024Z,96645.88
2023-05-02T03:25:22.654Z,96652.50
2023-05-02T03:27:53.180Z,96653.19
2023-05-02T03:30:22.745Z,96650.22
2023-05-02T03:32:54.600Z,96650.88
2023-05-02T03:35:32.438Z,96660.69
2023-05-02T03:38:06.898Z,96668.72
2023-05-02T03:40:34.924Z,96663.00
2023-05-02T03:43:04.834Z,96667.75
2023-05-02T03:45:32.586Z,96674.72
2023-05-02T03:48:02.603Z,96667.31
2023-05-02T03:50:31.081Z,96682.50
2023-05-02T03:53:10.560Z,96678.94
2023-05-02T03:55:41.069Z,96680.28
2023-05-02T03:58:08.817Z,96682.78
2023-05-02T04:00:38.629Z,96681.28
2023-05-02T04:03:08.821Z,96691.13
2023-05-02T04:05:37.367Z,96688.09
2023-05-02T04:08:08.691Z,96667.06
2023-05-02T04:10:37.190Z,96689.44
2023-05-02T04:13:05.174Z,96598.38
2023-05-02T04:15:33.647Z,96684.03
2023-05-02T04:18:03.238Z,96692.59
2023-05-02T04:20:34.276Z,96570.41
2023-05-02T04:23:02.644Z,96649.69
2023-05-02T04:25:31.138Z,96634.31
2023-05-02T04:27:58.872Z,96696.47
2023-05-02T04:30:28.622Z,96695.44
2023-05-02T04:32:59.643Z,96720.69
2023-05-02T04:35:27.834Z,96695.53
2023-05-02T04:37:59.876Z,96692.91
2023-05-02T04:40:30.594Z,96699.53
2023-05-02T04:43:07.905Z,96697.41
2023-05-02T04:45:37.338Z,96690.25
2023-05-02T04:48:07.085Z,96699.25
2023-05-02T04:50:41.615Z,96706.72
2023-05-02T04:53:12.186Z,96697.16
2023-05-02T04:55:43.262Z,96658.16
2023-05-02T04:58:11.611Z,96710.06
2023-05-02T05:00:43.163Z,96711.38
2023-05-02T05:03:13.723Z,96716.41
2023-05-02T05:05:47.988Z,96702.44
2023-05-02T05:08:23.635Z,96734.81
2023-05-02T05:10:52.775Z,96710.22
2023-05-02T05:13:24.782Z,96716.13
2023-05-02T05:15:56.156Z,96763.56
2023-05-02T05:18:24.614Z,96760.06
2023-05-02T05:20:52.459Z,96753.84
2023-05-02T05:23:24.081Z,96763.00
2023-05-02T05:25:53.073Z,96725.38
2023-05-02T05:28:24.110Z,96750.66
2023-05-02T05:30:55.422Z,96763.50
2023-05-02T05:33:23.685Z,96785.50
2023-05-02T05:38:42.981Z,96747.78
2023-05-02T05:41:12.297Z,96787.88
2023-05-02T05:43:45.828Z,96789.88
2023-05-02T05:46:13.970Z,96795.06
2023-05-02T05:48:43.930Z,96790.50
2023-05-02T05:51:14.541Z,96788.31
2023-05-02T05:53:45.302Z,96789.22
2023-05-02T05:56:15.555Z,96798.41
2023-05-02T05:58:44.372Z,96722.78
2023-05-02T06:01:18.014Z,96810.88
2023-05-02T06:03:49.856Z,96805.38
2023-05-02T06:06:18.556Z,96674.78
2023-05-02T06:08:48.701Z,96817.81
2023-05-02T06:11:20.159Z,96805.47
2023-05-02T06:14:00.978Z,96779.63
2023-05-02T06:16:32.394Z,96831.72
2023-05-02T06:19:03.847Z,96789.88
2023-05-02T06:21:34.393Z,96808.34
2023-05-02T06:24:07.641Z,96835.16
2023-05-02T06:26:35.989Z,96840.53
2023-05-02T06:29:04.151Z,96847.63
2023-05-02T06:31:32.753Z,96848.66
2023-05-02T06:34:01.498Z,96845.50
2023-05-02T06:36:30.561Z,96843.59
2023-05-02T06:39:22.544Z,96846.31
2023-05-02T06:41:55.543Z,96852.56
2023-05-02T06:44:24.047Z,96863.16
2023-05-02T06:46:55.716Z,96858.28
2023-05-02T06:49:25.220Z,96845.81
2023-05-02T06:51:56.555Z,96863.34
2023-05-02T06:54:28.812Z,96866.06
2023-05-02T06:56:58.241Z,96874.31
2023-05-02T06:59:29.022Z,96800.09
2023-05-02T07:01:57.181Z,96870.28
2023-05-02T07:04:27.398Z,96886.78
2023-05-02T07:07:02.303Z,96888.72
2023-05-02T07:09:32.512Z,96888.81
2023-05-02T07:12:05.330Z,96891.03
2023-05-02T07:14:50.938Z,96894.09
2023-05-02T07:17:19.587Z,96873.38
2023-05-02T07:19:49.920Z,96896.56
2023-05-02T07:22:30.866Z,96869.25
2023-05-02T07:24:59.764Z,96902.94
2023-05-02T07:27:33.419Z,96900.91
2023-05-02T07:30:04.418Z,96909.19
2023-05-02T07:32:36.535Z,96906.03
2023-05-02T07:35:05.292Z,96900.44
2023-05-02T07:37:40.882Z,96895.00
2023-05-02T07:40:13.503Z,96900.84
2023-05-02T07:42:44.460Z,96913.22
2023-05-02T07:45:14.497Z,96910.78
2023-05-02T07:47:47.456Z,96899.66
2023-05-02T07:50:26.330Z,96907.41
2023-05-02T07:52:55.127Z,96906.41
2023-05-02T07:55:28.822Z,96910.41
2023-05-02T07:57:58.522Z,96915.44
2023-05-02T08:00:27.673Z,96915.00
2023-05-02T08:02:57.033Z,96921.00
2023-05-02T08:05:26.693Z,96902.59
2023-05-02T08:07:57.819Z,96927.06
2023-05-02T08:10:28.943Z,96935.44
2023-05-02T08:13:01.676Z,96928.63
2023-05-02T08:15:33.462Z,96971.13
2023-05-02T08:18:07.057Z,96922.28
2023-05-02T08:20:42.357Z,96923.94
2023-05-02T08:23:15.333Z,96923.44
2023-05-02T08:25:46.189Z,96928.22
2023-05-02T08:28:17.936Z,96923.97
2023-05-02T08:30:46.458Z,96937.56
2023-05-02T08:33:14.683Z,96935.19
2023-05-02T08:35:43.294Z,96939.13
2023-05-02T08:38:12.441Z,96941.03
2023-05-02T08:40:46.827Z,96939.81
2023-05-02T08:43:20.079Z,96944.72
2023-05-02T08:45:48.624Z,96938.31
2023-05-02T08:48:20.462Z,96939.66
2023-05-02T08:50:49.987Z,96942.34
2023-05-02T08:53:22.685Z,96929.50
2023-05-02T08:55:53.856Z,96944.41
2023-05-02T08:58:23.590Z,96955.06
2023-05-02T09:00:54.708Z,96957.84
2023-05-02T09:03:29.136Z,96964.88
2023-05-02T09:06:05.598Z,96964.47
2023-05-02T09:08:35.223Z,96972.50
2023-05-02T09:11:03.998Z,96969.22
2023-05-02T09:13:37.661Z,96952.13
2023-05-02T09:16:08.855Z,96962.00
2023-05-02T09:18:40.358Z,96939.31
2023-05-02T09:21:13.045Z,96951.59
2023-05-02T09:23:45.134Z,96950.81
2023-05-02T09:26:15.433Z,96954.84
2023-05-02T09:28:50.550Z,96955.81
2023-05-02T09:31:43.679Z,96908.94
2023-05-02T09:34:13.099Z,96960.69
2023-05-02T09:36:45.523Z,96969.81
2023-05-02T09:39:23.829Z,96958.47
2023-05-02T09:41:54.428Z,96961.94
2023-05-02T09:44:27.540Z,96955.38
2023-05-02T09:46:57.714Z,96958.16
2023-05-02T09:49:45.687Z,96922.50
2023-05-02T09:52:15.659Z,96944.13
2023-05-02T09:54:48.947Z,96934.81
2023-05-02T09:57:20.586Z,96942.44
2023-05-02T10:00:11.809Z,96923.72
2023-05-02T10:02:51.708Z,96942.31
2023-05-02T10:05:21.663Z,96946.06
2023-05-02T10:07:54.269Z,96948.94
2023-05-02T10:10:27.518Z,96953.84
2023-05-02T10:12:55.790Z,96942.22
2023-05-02T10:15:31.076Z,96951.06
2023-05-02T10:18:13.790Z,96955.03
2023-05-02T10:20:48.556Z,96944.47
2023-05-02T10:23:31.449Z,96916.41
2023-05-02T10:26:05.566Z,96951.38
2023-05-02T10:28:35.218Z,96942.75
2023-05-02T10:31:11.026Z,96944.03
2023-05-02T10:33:40.482Z,96888.34
2023-05-02T10:36:12.827Z,96936.63
2023-05-02T10:38:43.591Z,96945.84
2023-05-02T10:41:17.078Z,96921.28
2023-05-02T10:43:49.558Z,96930.66
2023-05-02T10:46:37.788Z,96859.50
2023-05-02T10:49:07.356Z,96939.09
2023-05-02T10:51:36.405Z,96941.13
2023-05-02T10:54:23.413Z,96923.97
2023-05-02T10:57:13.055Z,96951.94
2023-05-02T10:59:47.906Z,96943.72
2023-05-02T11:02:52.082Z,96945.63
2023-05-02T11:05:20.234Z,96826.66
2023-05-02T11:07:52.807Z,96938.56
2023-05-02T11:10:28.636Z,96928.72
2023-05-02T11:13:01.175Z,96918.81
2023-05-02T11:15:58.490Z,96924.38
2023-05-02T11:18:28.802Z,96928.00
2023-05-02T11:21:30.788Z,96933.25
2023-05-02T11:24:38.376Z,96927.28
2023-05-02T11:27:47.012Z,96946.34
2023-05-02T11:30:16.359Z,96943.22
2023-05-02T11:33:13.596Z,96947.44
2023-05-02T11:35:48.917Z,96949.72
2023-05-02T11:38:20.416Z,96939.28
2023-05-02T11:41:01.028Z,96934.56
2023-05-02T11:43:32.839Z,96927.28
2023-05-02T11:46:05.847Z,96917.13
2023-05-02T11:48:35.389Z,96931.75
2023-05-02T11:51:07.418Z,96926.25
2023-05-02T11:53:37.244Z,96927.94
2023-05-02T11:56:12.279Z,96926.00
2023-05-02T11:58:40.624Z,96924.34
2023-05-02T12:01:15.299Z,96938.84
2023-05-02T12:03:45.855Z,96915.25
2023-05-02T12:06:18.993Z,96878.72
2023-05-02T12:08:50.106Z,96946.88
2023-05-02T12:11:22.473Z,96940.22
2023-05-02T12:13:53.302Z,96937.56
2023-05-02T12:16:22.361Z,96940.13
2023-05-02T12:19:01.566Z,96933.84
2023-05-02T12:21:34.524Z,96943.88
2023-05-02T12:24:06.264Z,96942.66
2023-05-02T12:26:37.180Z,96956.06
2023-05-02T12:29:10.187Z,96945.00
2023-05-02T12:31:38.962Z,96942.75
2023-05-02T12:34:12.995Z,96913.25
2023-05-02T12:36:48.021Z,96946.00
2023-05-02T12:39:18.035Z,96922.94
2023-05-02T12:41:46.489Z,96938.41
2023-05-02T12:44:19.203Z,96932.97
2023-05-02T12:47:00.258Z,96939.41
2023-05-02T12:49:31.580Z,96945.84
2023-05-02T12:52:12.340Z,96945.69
2023-05-02T12:54:41.150Z,96949.72
2023-05-02T12:57:13.605Z,96945.06
2023-05-02T12:59:43.947Z,96918.88
2023-05-02T13:02:11.778Z,96942.69
2023-05-02T13:04:43.323Z,96937.31
2023-05-02T13:07:13.400Z,96929.66
2023-05-02T13:09:44.124Z,96939.94
2023-05-02T13:12:13.746Z,96938.53
2023-05-02T13:14:44.830Z,96929.97
2023-05-02T13:17:14.877Z,96908.84
2023-05-02T13:19:53.997Z,96942.47
2023-05-02T13:22:30.171Z,96874.94
2023-05-02T13:25:03.137Z,96945.63
2023-05-02T13:27:31.385Z,96944.59
2023-05-02T13:30:04.832Z,96943.09
2023-05-02T13:32:38.702Z,96942.16
2023-05-02T13:35:14.207Z,96947.91
2023-05-02T13:37:47.995Z,96953.91
2023-05-02T13:40:17.450Z,96928.22
2023-05-02T13:42:48.509Z,96934.63
2023-05-02T13:45:19.445Z,96936.75
2023-05-02T13:47:47.875Z,96933.56
2023-05-02T13:50:21.115Z,96933.91
2023-05-02T13:52:53.253Z,96921.16
2023-05-02T13:55:26.425Z,96923.94
2023-05-02T13:57:58.867Z,96926.19
2023-05-02T14:00:29.052Z,96894.34
2023-05-02T14:03:00.304Z,96921.53
2023-05-02T14:05:33.088Z,96909.66
2023-05-02T14:08:11.122Z,96913.53
2023-05-02T14:10:42.367Z,96931.56
2023-05-02T14:13:14.612Z,96878.25
2023-05-02T14:15:43.250Z,96938.66
2023-05-02T14:18:14.009Z,96922.56
2023-05-02T14:20:42.578Z,96892.69
2023-05-02T14:23:11.999Z,96931.16
2023-05-02T14:25:41.632Z,96935.94
2023-05-02T14:28:14.753Z,96910.72
2023-05-02T14:30:43.966Z,96908.69
2023-05-02T14:33:25.800Z,96933.34
2023-05-02T14:35:57.269Z,96705.84
2023-05-02T14:38:30.280Z,96943.22
2023-05-02T14:41:00.813Z,96945.72
2023-05-02T14:43:28.898Z,96943.59
2023-05-02T14:45:57.814Z,96900.84
2023-05-02T14:48:26.076Z,96930.94
2023-05-02T14:50:59.856Z,96942.47
2023-05-02T14:53:34.371Z,96917.06
2023-05-02T14:56:04.354Z,96947.66
2023-05-02T14:58:38.427Z,96944.09
2023-05-02T15:01:16.290Z,96945.78
2023-05-02T15:04:04.366Z,96947.72
2023-05-02T15:06:34.470Z,96951.13
2023-05-02T15:09:07.806Z,96948.66
2023-05-02T15:11:41.494Z,96947.41
2023-05-02T15:14:14.819Z,96948.25
2023-05-02T15:16:50.322Z,96936.50
2023-05-02T15:19:18.563Z,96946.72
2023-05-02T15:21:46.933Z,96937.22
2023-05-02T15:24:23.335Z,96934.88
2023-05-02T15:26:52.031Z,96936.56
2023-05-02T15:29:19.897Z,96941.75
2023-05-02T15:31:48.006Z,96942.25
2023-05-02T15:34:16.118Z,96948.72
2023-05-02T15:36:48.803Z,96948.75
2023-05-02T15:39:23.118Z,96946.09
2023-05-02T15:41:52.949Z,96945.56
2023-05-02T15:44:21.556Z,96907.06
2023-05-02T15:46:50.001Z,96941.50
2023-05-02T15:49:18.172Z,96944.97
2023-05-02T15:51:48.429Z,96940.50
2023-05-02T15:54:21.870Z,96931.38
2023-05-02T15:56:55.629Z,96938.31
2023-05-02T15:59:23.757Z,96841.03
2023-05-02T16:01:59.174Z,96907.31
2023-05-02T16:04:29.475Z,96948.84
2023-05-02T16:06:59.386Z,96957.69
2023-05-02T16:09:33.864Z,96923.69
2023-05-02T16:12:03.959Z,96950.00
2023-05-02T16:14:35.246Z,96947.47
2023-05-02T16:17:04.155Z,96959.66
2023-05-02T16:19:38.799Z,96946.78
2023-05-02T16:22:11.534Z,96960.38
2023-05-02T16:24:41.272Z,96958.13
2023-05-02T16:27:10.244Z,96921.75
2023-05-02T16:29:42.131Z,96958.00
2023-05-02T16:32:12.540Z,96939.88
2023-05-02T16:34:43.227Z,96925.97
2023-05-02T16:37:11.658Z,96971.09
2023-05-02T16:39:41.530Z,96764.47
2023-05-02T16:42:15.171Z,96961.56
2023-05-02T16:44:43.728Z,96957.72
2023-05-02T16:47:14.060Z,96957.66
2023-05-02T16:49:46.108Z,96820.28
2023-05-02T16:52:18.984Z,96698.09
2023-05-02T16:54:48.515Z,96976.63
2023-05-02T16:57:20.024Z,96975.69
2023-05-02T17:00:00.873Z,96971.88
2023-05-02T17:02:30.998Z,96974.50
2023-05-02T17:04:58.960Z,96982.81
2023-05-02T17:07:28.657Z,96976.66
2023-05-02T17:09:58.511Z,96980.31
2023-05-02T17:12:34.203Z,96976.19
2023-05-02T17:15:04.507Z,96982.88
2023-05-02T17:17:36.696Z,96985.03
2023-05-02T17:20:07.392Z,96986.28
2023-05-02T17:22:35.672Z,96985.91
2023-05-02T17:25:06.696Z,96967.19
2023-05-02T17:27:34.717Z,97015.16
2023-05-02T17:30:03.330Z,96983.38
2023-05-02T17:32:34.123Z,96984.50
2023-05-02T17:35:03.365Z,96988.25
2023-05-02T17:37:34.698Z,97019.56
2023-05-02T17:40:06.097Z,96989.03
2023-05-02T17:42:34.666Z,96988.09
2023-05-02T17:45:06.523Z,96992.69
2023-05-02T17:47:36.110Z,96905.22
2023-05-02T17:50:05.430Z,96995.22
2023-05-02T17:52:35.949Z,96987.41
2023-05-02T17:55:07.185Z,97017.06
2023-05-02T17:57:35.513Z,97016.28
2023-05-02T18:00:05.159Z,96962.81
2023-05-02T18:02:35.402Z,96994.91
2023-05-02T18:05:04.226Z,96940.53
2023-05-02T18:07:32.613Z,97037.66
2023-05-02T18:10:10.035Z,96998.03
2023-05-02T18:12:39.373Z,96989.84
2023-05-02T18:15:09.758Z,97048.53
2023-05-02T18:17:40.939Z,97056.84
2023-05-02T18:20:12.160Z,97028.28
2023-05-02T18:22:44.726Z,97063.44
2023-05-02T18:25:12.954Z,97065.06
2023-05-02T18:28:00.566Z,97065.59
2023-05-02T18:30:29.308Z,97073.22
2023-05-02T18:33:00.734Z,97046.75
2023-05-02T18:35:29.159Z,97069.97
2023-05-02T18:38:00.386Z,97072.13
2023-05-02T18:40:28.877Z,97021.50
2023-05-02T18:42:59.397Z,97072.25
2023-05-02T18:45:30.749Z,97074.59
2023-05-02T18:48:04.635Z,97023.34
2023-05-02T18:50:33.080Z,97081.06
2023-05-02T18:53:02.144Z,97085.25
2023-05-02T18:55:44.946Z,97089.75
2023-05-02T18:58:22.314Z,97055.09
2023-05-02T19:00:50.960Z,97092.16
2023-05-02T19:03:25.457Z,97088.78
2023-05-02T19:05:53.857Z,97097.25
2023-05-02T19:08:23.021Z,96841.16
2023-05-02T19:10:53.968Z,97093.63
2023-05-02T19:13:30.166Z,97102.53
2023-05-02T19:15:58.470Z,97067.53
2023-05-02T19:18:26.434Z,97113.38
2023-05-02T19:20:57.773Z,97110.97
2023-05-02T19:23:26.207Z,97112.50
2023-05-02T19:25:57.198Z,97048.69
2023-05-02T19:28:28.087Z,97112.50
2023-05-02T19:31:00.561Z,97118.97
2023-05-02T19:33:31.876Z,97109.22
2023-05-02T19:36:04.816Z,97127.91
2023-05-02T19:38:37.622Z,97132.47
2023-05-02T19:41:12.363Z,97133.53
2023-05-02T19:43:42.637Z,97144.25
2023-05-02T19:46:13.456Z,97141.84
2023-05-02T19:48:42.928Z,97109.13
2023-05-02T19:51:11.274Z,97152.22
2023-05-02T19:53:42.290Z,97151.75
2023-05-02T19:56:12.783Z,97155.19
2023-05-02T19:58:43.746Z,97156.28
2023-05-02T20:01:15.681Z,97159.50
2023-05-02T20:03:43.885Z,97170.38
2023-05-02T20:06:13.320Z,97165.06
2023-05-02T20:08:45.528Z,97173.03
2023-05-02T20:11:13.463Z,97175.16
2023-05-02T20:13:43.263Z,97177.28
2023-05-02T20:16:14.921Z,97149.84
2023-05-02T20:18:43.454Z,97186.88
2023-05-02T20:21:11.288Z,97196.19
2023-05-02T20:23:40.767Z,97196.44
2023-05-02T20:26:08.613Z,97198.63
2023-05-02T20:28:38.006Z,97199.16
2023-05-02T20:31:10.498Z,97200.75
2023-05-02T20:33:45.777Z,97200.72
2023-05-02T20:36:18.971Z,97210.59
2023-05-02T20:38:54.199Z,97202.84
2023-05-02T20:41:27.112Z,97212.41
2023-05-02T20:43:57.295Z,97204.38
2023-05-02T20:46:26.979Z,97206.72
2023-05-02T20:48:55.729Z,97208.00
2023-05-02T20:51:26.677Z,97106.66
2023-05-02T20:53:54.791Z,97214.38
2023-05-02T20:56:23.261Z,97195.94
2023-05-02T20:58:51.568Z,97203.91
2023-05-02T21:01:25.692Z,97115.59
2023-05-02T21:03:57.258Z,97200.97
2023-05-02T21:06:27.624Z,97203.53
2023-05-02T21:08:56.937Z,97205.34
2023-05-02T21:11:27.515Z,97201.25
2023-05-02T21:13:55.509Z,97206.03
2023-05-02T21:16:26.689Z,97208.03
2023-05-02T21:18:57.002Z,97209.41
2023-05-02T21:21:25.649Z,97200.91
2023-05-02T21:23:53.930Z,97204.16
2023-05-02T21:26:21.948Z,97212.13
2023-05-02T21:28:49.913Z,97217.34
2023-05-02T21:31:18.334Z,97181.34
2023-05-02T21:33:46.470Z,97220.72
2023-05-02T21:36:16.073Z,97213.50
2023-05-02T21:38:45.707Z,97220.50
2023-05-02T21:41:19.129Z,97214.19
2023-05-02T21:43:49.711Z,97208.44
2023-05-02T21:46:17.711Z,97209.00
2023-05-02T21:48:48.024Z,97216.31
2023-05-02T21:51:17.939Z,97210.06
2023-05-02T21:53:55.461Z,97209.59
2023-05-02T21:56:24.052Z,97198.00
2023-05-02T21:58:52.905Z,97130.66
2023-05-02T22:01:23.631Z,97140.13
2023-05-02T22:03:56.731Z,97212.63
2023-05-02T22:06:26.902Z,97202.75
2023-05-02T22:09:11.522Z,97211.38
2023-05-02T22:11:42.324Z,97209.72
2023-05-02T22:14:13.522Z,97214.94
2023-05-02T22:16:44.583Z,97220.00
2023-05-02T22:19:14.601Z,97222.56
2023-05-02T22:21:46.683Z,97225.53
2023-05-02T22:24:15.159Z,97222.38
2023-05-02T22:26:43.507Z,97218.97
2023-05-02T22:29:14.368Z,97219.16
2023-05-02T22:31:45.089Z,97154.28
2023-05-02T22:34:18.291Z,97215.22
2023-05-02T22:36:48.943Z,97219.13
2023-05-02T22:39:20.665Z,97161.38
2023-05-02T22:41:48.450Z,97223.47
2023-05-02T22:44:16.382Z,97227.47
2023-05-02T22:46:44.519Z,97225.63
2023-05-02T22:49:12.776Z,97203.41
2023-05-02T22:51:42.301Z,97231.69
2023-05-02T22:54:29.236Z,97230.63
2023-05-02T22:56:58.606Z,97233.34
2023-05-02T22:59:32.451Z,97195.34
2023-05-02T23:02:01.538Z,97233.78
2023-05-02T23:04:35.282Z,97232.69
2023-05-02T23:07:05.025Z,97236.44
2023-05-02T23:09:36.033Z,97237.41
2023-05-02T23:12:04.264Z,97241.03
2023-05-02T23:14:34.937Z,97239.53
2023-05-02T23:17:03.746Z,97242.19
2023-05-02T23:19:32.290Z,97019.91
2023-05-02T23:22:00.846Z,97236.28
2023-05-02T23:24:29.721Z,97222.94
2023-05-02T23:27:01.949Z,97228.28
2023-05-02T23:29:30.340Z,97230.81
2023-05-02T23:31:58.232Z,97243.38
2023-05-02T23:34:26.715Z,97239.25
2023-05-02T23:36:54.852Z,97245.28
2023-05-02T23:39:23.215Z,97238.44
2023-05-02T23:41:53.903Z,97094.78
2023-05-02T23:44:23.871Z,97134.63
2023-05-02T23:46:52.224Z,97216.81
2023-05-02T23:49:24.712Z,97249.59
2023-05-02T23:51:52.589Z,97241.75
2023-05-02T23:54:32.623Z,97258.16
2023-05-02T23:57:04.585Z,97244.34
2023-05-02T23:59:35.542Z,97252.13
